Weather at Dzhebariki-Khaya Airport

Public forecast

Using degrees Celsius for public forecast. Weather courtesy of forecast.io.

Closest aviation weather report (METAR) to Dzhebariki-Khaya Airport

Closest report is Yakutsk Airport, 171.0 nm (316.7 km) W. Retrieved 2021/06/20 09:30 UTC (25 minutes ago):

UEEE 200930Z 07002MPS CAVOK 31/07 Q1004 R23L/09//70 NOSIG RMK QFE745

Closest aviation forecast (TAF) to Dzhebariki-Khaya Airport

Closest forecast is Yakutsk Airport, 171.0 nm (316.7 km) W. Retrieved 2021/06/20 09:21 UTC (34 minutes ago):

TAF UEEE 200800Z 2009/2115 07003G08MPS 9999 SCT033 TX29/2009Z TN15/2018Z